Time;durP1;ratioP1;P1;durP2;ratioP2;P2;SDS_P1;SDS_P2;PMS_P1;PMS_P2;Temp;Humidity;BMP_temperature;BMP_pressure;BME280_temperature;BME280_humidity;BME280_pressure;Samples;Min_cycle;Max_cycle;Signal;HPM_P1;HPM_P2
2021/09/17 00:01:42;;;;;;;;;76.50;60.25;;;;;13.28;63.10;101496.94;4877706;29;11756;-73
2021/09/17 00:04:38;;;;;;;;;75.25;60.00;;;;;13.29;63.03;101508.88;4879130;29;11811;-73
2021/09/17 00:07:06;;;;;;;;;71.25;57.75;;;;;13.29;63.11;101506.91;4888202;29;11736;-72
2021/09/17 00:09:33;;;;;;;;;75.25;57.75;;;;;13.21;63.00;101504.13;4898268;29;11739;-73
2021/09/17 00:12:29;;;;;;;;;77.75;59.00;;;;;13.27;63.08;101506.44;4884408;29;11751;-73
2021/09/17 00:15:24;;;;;;;;;71.00;57.00;;;;;13.31;62.24;101504.59;4896987;29;11792;-73
2021/09/17 00:18:20;;;;;;;;;65.00;54.00;;;;;13.14;62.96;101504.59;4896892;29;11742;-73
2021/09/17 00:21:16;;;;;;;;;60.50;50.25;;;;;13.02;63.41;101501.66;4897019;29;11743;-73
2021/09/17 00:24:11;;;;;;;;;62.75;50.00;;;;;13.14;62.79;101509.34;4895033;29;12583;-73
2021/09/17 00:27:07;;;;;;;;;69.00;53.75;;;;;12.94;63.31;101511.63;4896811;29;11709;-73
2021/09/17 00:30:04;;;;;;;;;66.75;54.75;;;;;12.84;63.68;101513.94;4883877;29;11769;-73
2021/09/17 00:32:59;;;;;;;;;58.25;47.50;;;;;12.95;63.28;101507.72;4878580;29;11742;-73
2021/09/17 00:35:55;;;;;;;;;71.00;55.25;;;;;12.87;63.81;101496.59;4877284;29;11922;-73
2021/09/17 00:38:51;;;;;;;;;68.75;54.25;;;;;12.94;63.56;101494.16;4878888;29;11737;-73
2021/09/17 00:41:46;;;;;;;;;69.00;55.00;;;;;12.95;63.34;101495.78;4878176;29;11896;-73
2021/09/17 00:44:42;;;;;;;;;69.25;53.00;;;;;13.04;63.10;101494.66;4878026;29;11756;-73
2021/09/17 00:47:39;;;;;;;;;76.50;57.25;;;;;12.99;62.97;101497.59;4877997;29;11841;-73
2021/09/17 00:50:35;;;;;;;;;70.50;53.50;;;;;12.96;63.35;101492.72;4878100;29;11741;-73
2021/09/17 00:53:06;;;;;;;;;74.50;57.25;;;;;12.85;63.42;101496.94;4879107;29;11757;-73
2021/09/17 00:56:03;;;;;;;;;75.00;60.00;;;;;12.63;64.39;101495.13;4877799;29;11877;-73
2021/09/17 00:58:59;;;;;;;;;73.75;59.25;;;;;12.59;64.46;101496.94;4878923;29;12591;-73
2021/09/17 01:01:55;;;;;;;;;76.00;58.25;;;;;12.62;64.41;101493.50;4877742;29;11750;-73
2021/09/17 01:04:50;;;;;;;;;77.50;60.00;;;;;12.71;64.15;101488.75;4876851;29;11782;-73
2021/09/17 01:07:46;;;;;;;;;73.75;54.75;;;;;12.82;63.63;101492.06;4892068;29;11852;-73
2021/09/17 01:10:15;;;;;;;;;75.25;59.00;;;;;12.83;62.93;101490.09;4897467;29;12662;-73
2021/09/17 01:13:12;;;;;;;;;73.75;57.25;;;;;12.57;63.82;101490.88;4896750;29;11798;-73
2021/09/17 01:16:08;;;;;;;;;68.75;53.50;;;;;12.60;63.98;101487.47;4883852;29;11693;-73
2021/09/17 01:19:03;;;;;;;;;69.00;54.50;;;;;12.47;64.22;101485.66;4896715;29;11718;-73
2021/09/17 01:22:01;;;;;;;;;71.25;55.25;;;;;12.49;64.24;101486.13;4896462;29;11811;-73
2021/09/17 01:24:57;;;;;;;;;70.50;55.25;;;;;12.32;64.60;101478.59;4896232;29;11711;-73
2021/09/17 01:27:53;;;;;;;;;68.50;54.75;;;;;12.37;64.14;101478.47;4896327;29;12543;-73
2021/09/17 01:30:49;;;;;;;;;54.25;46.00;;;;;12.43;64.14;101473.59;4896298;29;11723;-73
2021/09/17 01:33:45;;;;;;;;;58.25;50.00;;;;;12.53;63.21;101476.84;4896273;29;11686;-73
2021/09/17 01:36:41;;;;;;;;;60.25;50.50;;;;;12.48;63.26;101468.66;4891158;29;11774;-73
2021/09/17 01:39:37;;;;;;;;;66.00;51.00;;;;;12.36;63.00;101468.50;4878474;29;11717;-73
2021/09/17 01:42:32;;;;;;;;;64.25;51.25;;;;;12.26;63.39;101454.94;4880986;29;11746;-73
2021/09/17 01:45:28;;;;;;;;;51.75;41.50;;;;;12.27;63.32;101467.69;4880759;29;11756;-73
2021/09/17 01:48:13;;;;;;;;;60.00;50.50;;;;;12.50;62.83;101466.41;4883017;29;11885;-73
2021/09/17 01:51:09;;;;;;;;;59.25;48.25;;;;;12.30;63.20;101453.16;4880848;29;11811;-73
2021/09/17 01:54:07;;;;;;;;;59.00;50.00;;;;;12.32;62.88;101450.88;4881080;29;11736;-73
2021/09/17 01:57:04;;;;;;;;;58.50;49.50;;;;;12.29;63.12;101451.53;4880571;29;11772;-72
2021/09/17 02:00:00;;;;;;;;;62.00;50.75;;;;;12.22;63.44;101451.19;4881257;29;12498;-72
2021/09/17 02:02:56;;;;;;;;;58.00;48.25;;;;;12.14;64.12;101457.53;4881326;29;11727;-72
2021/09/17 02:05:51;;;;;;;;;48.50;40.50;;;;;12.19;63.68;101454.59;4880584;29;11712;-72
2021/09/17 02:08:47;;;;;;;;;61.75;49.75;;;;;12.33;63.14;101454.47;4861745;29;11751;-72
2021/09/17 02:11:43;;;;;;;;;65.50;52.50;;;;;12.38;62.68;101457.09;4861829;29;11711;-72
2021/09/17 02:14:39;;;;;;;;;61.25;50.75;;;;;12.33;62.79;101449.72;4874084;29;11744;-72
2021/09/17 02:17:35;;;;;;;;;61.75;50.00;;;;;12.22;62.91;101454.78;4884420;29;12485;-72
2021/09/17 02:20:30;;;;;;;;;60.00;48.50;;;;;12.17;62.54;101452.16;4899000;29;11761;-72
2021/09/17 02:23:26;;;;;;;;;61.75;50.50;;;;;12.17;62.78;101454.09;4895471;29;12436;-72
2021/09/17 02:26:21;;;;;;;;;60.00;51.00;;;;;12.13;62.53;101453.13;4886177;29;12501;-72
2021/09/17 02:29:17;;;;;;;;;60.75;51.00;;;;;12.13;62.67;101451.16;4898763;29;11728;-74
2021/09/17 02:32:13;;;;;;;;;64.25;51.75;;;;;12.04;63.06;101441.19;4869474;29;11781;-71
2021/09/17 02:35:09;;;;;;;;;53.50;45.25;;;;;12.10;62.70;101449.03;4880784;29;11727;-71
2021/09/17 02:38:05;;;;;;;;;65.75;51.50;;;;;12.17;62.08;101441.06;4879868;29;11734;-73
2021/09/17 02:40:33;;;;;;;;;68.50;55.00;;;;;12.08;62.25;101431.91;4881008;29;11768;-72
2021/09/17 02:43:29;;;;;;;;;71.25;57.00;;;;;11.91;63.25;101445.72;4879767;29;11757;-72
2021/09/17 02:46:25;;;;;;;;;66.75;54.25;;;;;11.64;64.39;101435.66;4879760;29;11725;-72
2021/09/17 02:49:13;;;;;;;;;67.00;53.00;;;;;11.64;64.66;101441.19;4880599;29;11730;-72
2021/09/17 02:51:51;;;;;;;;;67.75;54.50;;;;;11.65;64.67;101440.03;4879711;29;11835;-72
2021/09/17 02:54:46;;;;;;;;;66.25;54.00;;;;;11.46;65.66;101440.31;4861105;29;11749;-71
2021/09/17 02:57:42;;;;;;;;;69.50;54.75;;;;;11.74;64.66;101437.34;4860968;29;12594;-72
2021/09/17 03:00:39;;;;;;;;;66.50;53.75;;;;;11.81;64.37;101438.53;4862171;29;12598;-72
2021/09/17 03:03:35;;;;;;;;;54.75;46.25;;;;;11.64;64.67;101438.41;4848405;29;12545;-72
2021/09/17 03:06:30;;;;;;;;;69.50;54.75;;;;;11.69;64.43;101441.06;4860612;29;11784;-72
2021/09/17 03:09:26;;;;;;;;;59.00;46.00;;;;;11.58;64.94;101434.19;4848556;29;11740;-72
2021/09/17 03:12:22;;;;;;;;;63.25;52.00;;;;;11.54;64.95;101442.28;4860809;29;11789;-72
2021/09/17 03:15:17;;;;;;;;;52.50;43.25;;;;;11.62;65.24;101429.63;4860535;29;11728;-73
2021/09/17 03:18:13;;;;;;;;;66.50;53.75;;;;;11.57;65.38;101432.50;4860761;29;11736;-73
2021/09/17 03:21:08;;;;;;;;;66.75;54.00;;;;;11.72;64.64;101437.63;4877398;29;11802;-72
2021/09/17 03:24:04;;;;;;;;;67.50;53.50;;;;;11.64;64.35;101443.97;4877194;29;11711;-72
2021/09/17 03:27:00;;;;;;;;;62.75;52.00;;;;;11.66;64.02;101436.97;4879053;29;11838;-72
2021/09/17 03:29:55;;;;;;;;;63.25;51.75;;;;;11.64;64.30;101432.88;4879024;29;11844;-72
2021/09/17 03:32:51;;;;;;;;;62.50;51.75;;;;;11.77;63.50;101431.94;4889100;29;11734;-72
2021/09/17 03:35:46;;;;;;;;;59.75;50.25;;;;;11.69;63.59;101436.31;4884924;29;11743;-72
2021/09/17 03:38:14;;;;;;;;;62.50;51.50;;;;;11.69;63.35;101439.09;4898348;29;11713;-72
2021/09/17 03:41:10;;;;;;;;;61.50;50.50;;;;;11.69;64.39;101438.28;4886594;29;11729;-72
2021/09/17 03:44:06;;;;;;;;;65.50;53.75;;;;;11.74;63.49;101435.38;4878536;29;11749;-72
2021/09/17 03:47:01;;;;;;;;;66.75;52.00;;;;;11.62;63.48;101435.16;4878968;29;11852;-72
2021/09/17 03:49:43;;;;;;;;;62.25;48.50;;;;;11.70;63.55;101434.38;4879408;29;11826;-72
2021/09/17 03:52:38;;;;;;;;;58.75;49.25;;;;;11.72;63.46;101440.41;4878468;29;11742;-72
2021/09/17 03:55:35;;;;;;;;;57.50;47.50;;;;;11.69;63.37;101441.06;4878393;29;12399;-72
2021/09/17 03:58:30;;;;;;;;;29.00;26.00;;;;;11.61;63.02;101428.81;4861405;29;11819;-71
2021/09/17 04:01:26;;;;;;;;;57.50;49.00;;;;;11.60;63.46;101431.91;4883680;29;11712;-71
2021/09/17 04:03:56;;;;;;;;;60.25;49.25;;;;;11.72;62.84;101436.81;4888203;29;11730;-72
2021/09/17 04:06:52;;;;;;;;;59.00;49.25;;;;;11.75;62.68;101433.41;4878830;29;11756;-71
2021/09/17 04:09:34;;;;;;;;;67.50;54.00;;;;;11.79;62.60;101429.66;4884762;29;11751;-71
2021/09/17 04:12:21;;;;;;;;;61.00;50.75;;;;;11.82;62.93;101437.38;4883771;29;11722;-72
2021/09/17 04:15:17;;;;;;;;;65.25;53.25;;;;;11.95;62.35;101428.13;4896516;29;11681;-72
2021/09/17 04:18:12;;;;;;;;;64.25;53.25;;;;;11.90;62.45;101425.50;4896624;29;11724;-72
2021/09/17 04:21:08;;;;;;;;;73.25;58.00;;;;;11.95;62.31;101413.44;4884555;29;11735;-72
2021/09/17 04:24:04;;;;;;;;;65.75;51.50;;;;;11.94;62.46;101417.34;4894449;29;11696;-72
2021/09/17 04:26:59;;;;;;;;;71.00;56.25;;;;;12.06;61.77;101406.47;4866449;29;11757;-72
2021/09/17 04:29:41;;;;;;;;;70.50;56.50;;;;;12.13;62.03;101411.53;4878613;29;11851;-72
2021/09/17 04:32:37;;;;;;;;;73.00;55.75;;;;;12.13;61.81;101412.34;4877802;29;11729;-72
2021/09/17 04:35:35;;;;;;;;;72.00;54.00;;;;;12.20;62.21;101414.66;4879055;29;11821;-72
2021/09/17 04:38:30;;;;;;;;;67.50;54.75;;;;;12.19;62.28;101407.44;4865471;29;12010;-72
2021/09/17 04:41:26;;;;;;;;;67.25;53.75;;;;;12.26;62.08;101407.78;4878347;29;11757;-72
2021/09/17 04:44:21;;;;;;;;;70.25;56.00;;;;;12.43;62.35;101421.69;4859828;29;11768;-73
2021/09/17 04:47:17;;;;;;;;;67.25;51.25;;;;;12.64;60.82;101421.00;4848630;29;11762;-72
2021/09/17 04:50:13;;;;;;;;;58.75;49.75;;;;;12.75;60.48;101414.00;4860897;29;11860;-73
2021/09/17 04:53:09;;;;;;;;;75.50;56.00;;;;;12.85;60.49;101410.06;4860998;29;11743;-72
2021/09/17 04:56:04;;;;;;;;;78.50;59.00;;;;;12.98;60.69;101411.84;4847212;29;11889;-72
2021/09/17 04:59:00;;;;;;;;;73.00;55.25;;;;;13.08;59.10;101415.09;4874179;29;11723;-72
2021/09/17 05:01:28;;;;;;;;;71.75;56.75;;;;;13.21;59.45;101410.50;4878976;29;11743;-72
2021/09/17 05:03:57;;;;;;;;;71.75;55.25;;;;;13.26;59.31;101415.88;4885053;29;11727;-72
2021/09/17 05:06:53;;;;;;;;;70.00;56.25;;;;;13.40;59.10;101409.31;4882383;29;11827;-72
2021/09/17 05:09:48;;;;;;;;;78.75;59.75;;;;;13.51;58.66;101408.63;4896585;29;11741;-73
2021/09/17 05:12:44;;;;;;;;;80.25;60.50;;;;;13.70;58.12;101415.72;4892123;29;11744;-72
2021/09/17 05:15:39;;;;;;;;;82.25;68.25;;;;;13.87;59.01;101412.84;4867737;29;11817;-73
2021/09/17 05:18:35;;;;;;;;;76.75;59.75;;;;;14.13;58.16;101413.50;4873300;29;11778;-73
2021/09/17 05:21:31;;;;;;;;;86.50;76.50;;;;;14.24;57.45;101413.91;4864023;29;11786;-73
2021/09/17 05:24:26;;;;;;;;;85.00;71.75;;;;;14.45;57.76;101411.16;4864024;29;11789;-73
2021/09/17 05:27:22;;;;;;;;;82.00;67.25;;;;;14.62;56.38;101422.16;4863860;29;11760;-73
2021/09/17 05:30:17;;;;;;;;;60.00;47.00;;;;;14.79;54.72;101418.41;4887889;29;11859;-73
2021/09/17 05:33:13;;;;;;;;;66.00;49.00;;;;;14.96;54.16;101418.25;4880998;29;11721;-72
2021/09/17 05:36:08;;;;;;;;;80.00;64.75;;;;;15.16;54.84;101410.19;4880695;29;12501;-72
2021/09/17 05:39:04;;;;;;;;;77.00;61.00;;;;;15.44;52.67;101416.75;4880627;29;11867;-73
2021/09/17 05:41:59;;;;;;;;;75.75;57.75;;;;;15.68;51.16;101413.19;4899699;29;11726;-73
2021/09/17 05:44:55;;;;;;;;;63.75;52.00;;;;;15.93;51.51;101415.97;4890729;29;11737;-73
2021/09/17 05:47:50;;;;;;;;;55.50;43.75;;;;;16.12;49.04;101421.78;4880775;29;12158;-73
2021/09/17 05:50:46;;;;;;;;;47.50;41.00;;;;;16.29;48.73;101423.50;4880582;29;11248;-73
2021/09/17 05:53:41;;;;;;;;;49.50;39.00;;;;;16.52;47.96;101419.03;4880568;29;11034;-73
2021/09/17 05:56:37;;;;;;;;;51.50;43.00;;;;;16.68;46.59;101416.28;4885682;29;11006;-73
2021/09/17 05:59:48;;;;;;;;;51.25;42.00;;;;;16.94;47.26;101421.44;4880475;29;10677;-73
2021/09/17 06:02:43;;;;;;;;;51.75;42.75;;;;;17.17;46.35;101421.66;4894068;29;10806;-73
2021/09/17 06:05:39;;;;;;;;;48.25;41.50;;;;;17.25;45.70;101426.28;4897662;29;10688;-73
2021/09/17 06:08:34;;;;;;;;;49.00;41.00;;;;;17.37;46.35;101415.03;4899083;29;10760;-73
2021/09/17 06:11:30;;;;;;;;;48.25;41.50;;;;;17.51;46.81;101421.00;4899350;29;10756;-73
2021/09/17 06:14:16;;;;;;;;;44.25;38.25;;;;;17.71;45.01;101430.34;4885833;29;10597;-71
2021/09/17 06:17:04;;;;;;;;;42.75;37.50;;;;;17.86;44.68;101427.84;4900720;29;10278;-71
2021/09/17 06:19:32;;;;;;;;;40.50;36.00;;;;;18.13;46.69;101426.94;4900140;29;10108;-71
2021/09/17 06:22:00;;;;;;;;;41.25;34.50;;;;;18.34;45.00;101435.00;4899951;29;10005;-72
2021/09/17 06:24:28;;;;;;;;;37.25;34.25;;;;;18.39;44.58;101434.69;4899945;29;9728;-71
2021/09/17 06:26:55;;;;;;;;;33.00;31.25;;;;;18.38;44.04;101438.69;4899752;29;9543;-72
2021/09/17 06:29:23;;;;;;;;;42.25;36.50;;;;;18.53;43.51;101431.41;4899821;29;10509;-72
2021/09/17 06:31:52;;;;;;;;;34.00;32.25;;;;;18.75;42.83;101427.91;4899725;29;9692;-72
2021/09/17 06:34:19;;;;;;;;;32.67;31.00;;;;;18.93;43.42;101431.06;4899578;29;9668;-72
2021/09/17 06:36:47;;;;;;;;;36.33;33.00;;;;;19.03;43.62;101424.88;4899475;29;10186;-72
2021/09/17 06:39:17;;;;;;;;;43.67;33.00;;;;;19.11;43.65;101415.41;4899588;29;9445;-72
2021/09/17 06:41:45;;;;;;;;;32.67;31.00;;;;;19.30;42.28;101422.97;4899490;29;9217;-72
2021/09/17 06:44:13;;;;;;;;;26.33;24.67;;;;;19.58;41.85;101413.47;4882786;29;9932;-72
2021/09/17 06:46:40;;;;;;;;;33.67;32.33;;;;;19.81;42.11;101410.66;4899442;29;9172;-72
2021/09/17 06:49:09;;;;;;;;;28.67;28.67;;;;;19.94;41.14;101410.06;4867386;29;9940;-72
2021/09/17 06:51:37;;;;;;;;;32.25;31.25;;;;;20.15;40.93;101412.38;4899593;29;9046;-72
2021/09/17 06:54:06;;;;;;;;;29.75;29.25;;;;;20.30;40.59;101409.75;4882598;29;8866;-72
2021/09/17 06:56:33;;;;;;;;;29.50;27.75;;;;;20.46;40.21;101410.41;4882807;29;8869;-72
2021/09/17 06:59:01;;;;;;;;;27.00;26.50;;;;;20.46;39.92;101399.19;4882595;29;8885;-72
2021/09/17 07:01:29;;;;;;;;;28.75;28.75;;;;;20.80;40.94;101400.03;4899113;29;9619;-73
2021/09/17 07:03:57;;;;;;;;;30.75;29.00;;;;;21.00;40.63;101395.81;4882663;29;8896;-72
2021/09/17 07:06:37;;;;;;;;;22.50;22.50;;;;;21.08;38.68;101394.69;4898881;29;8865;-72
2021/09/17 07:09:07;;;;;;;;;26.25;25.00;;;;;21.36;39.01;101394.22;4899028;29;8865;-72
2021/09/17 07:11:36;;;;;;;;;13.25;12.25;;;;;21.43;38.81;101399.09;4899055;29;9054;-73
2021/09/17 07:14:17;;;;;;;;;33.50;27.25;;;;;21.63;37.71;101397.69;4884192;29;8900;-72
2021/09/17 07:16:48;;;;;;;;;29.50;25.25;;;;;21.80;38.32;101393.38;4898703;29;8881;-72
2021/09/17 07:19:17;;;;;;;;;22.00;21.50;;;;;21.79;37.37;101399.41;4898536;29;8868;-73
2021/09/17 07:21:45;;;;;;;;;24.00;24.00;;;;;22.00;37.58;101399.53;4898947;29;8890;-72
2021/09/17 07:24:13;;;;;;;;;21.50;21.50;;;;;22.16;36.34;101391.66;4898768;29;8876;-73
2021/09/17 07:26:41;;;;;;;;;23.00;23.00;;;;;21.93;35.82;101385.44;4898670;29;8905;-73
2021/09/17 07:29:09;;;;;;;;;22.25;22.25;;;;;21.87;37.45;101387.00;4898884;29;9004;-72
2021/09/17 07:31:36;;;;;;;;;33.00;28.25;;;;;22.22;35.87;101385.63;4898923;29;8930;-72
2021/09/17 07:34:04;;;;;;;;;20.25;20.25;;;;;22.39;35.62;101377.28;4898148;29;8865;-73
2021/09/17 07:36:37;;;;;;;;;25.25;24.00;;;;;22.60;36.32;101375.75;4898318;29;8888;-72
2021/09/17 07:39:04;;;;;;;;;24.00;24.00;;;;;22.82;36.98;101373.81;4897900;29;8873;-72
2021/09/17 07:41:33;;;;;;;;;28.00;28.00;;;;;22.96;37.70;101380.31;4898196;29;8896;-72
2021/09/17 07:44:00;;;;;;;;;29.00;29.00;;;;;23.07;36.25;101388.78;4898052;29;8893;-72
2021/09/17 07:46:32;;;;;;;;;21.25;20.00;;;;;22.55;35.44;101382.59;4898092;29;8877;-72
2021/09/17 07:49:00;;;;;;;;;16.75;16.75;;;;;23.11;35.10;101378.34;4881584;29;8897;-72
2021/09/17 07:51:28;;;;;;;;;14.25;14.25;;;;;22.72;34.83;101381.03;4898365;29;8865;-72
2021/09/17 07:53:56;;;;;;;;;18.50;17.00;;;;;22.62;34.01;101385.44;4898170;29;8889;-72
2021/09/17 07:56:23;;;;;;;;;13.00;13.00;;;;;23.11;34.10;101386.81;4898540;29;8884;-72
2021/09/17 07:58:51;;;;;;;;;8.25;8.25;;;;;23.33;32.12;101381.19;4898150;29;8897;-72
2021/09/17 08:01:19;;;;;;;;;5.75;5.75;;;;;22.91;30.55;101372.25;4898413;29;8932;-72
2021/09/17 08:03:49;;;;;;;;;5.00;5.00;;;;;22.74;31.72;101378.63;4867086;29;8861;-72
2021/09/17 08:06:19;;;;;;;;;5.00;5.00;;;;;23.09;31.03;101377.94;4898420;29;8873;-72
2021/09/17 08:08:48;;;;;;;;;5.00;5.00;;;;;23.01;31.19;101367.84;4881803;29;8877;-72
2021/09/17 08:11:17;;;;;;;;;9.00;9.00;;;;;23.60;32.59;101365.50;4898079;29;8865;-72
2021/09/17 08:13:45;;;;;;;;;4.75;4.75;;;;;23.70;30.13;101366.72;4897936;29;8920;-72
2021/09/17 08:16:13;;;;;;;;;3.40;3.40;;;;;23.52;29.08;101373.13;4881514;29;8873;-72
2021/09/17 08:18:45;;;;;;;;;4.20;4.20;;;;;23.48;29.81;101369.50;4898154;29;8865;-72
2021/09/17 08:21:13;;;;;;;;;5.75;5.25;;;;;23.89;29.03;101359.81;4881646;29;8888;-72
2021/09/17 08:23:41;;;;;;;;;6.20;4.80;;;;;23.95;29.18;101361.03;4897592;29;9675;-72
2021/09/17 08:26:11;;;;;;;;;4.60;4.20;;;;;23.94;29.56;101360.22;4881495;29;8901;-73
2021/09/17 08:28:40;;;;;;;;;5.00;5.00;;;;;23.95;28.66;101353.34;4898009;29;9054;-73
2021/09/17 08:31:07;;;;;;;;;5.00;4.00;;;;;24.36;28.06;101358.50;4881063;29;9634;-73
2021/09/17 08:33:35;;;;;;;;;5.00;5.00;;;;;24.30;28.33;101351.63;4897918;29;8949;-71
2021/09/17 08:36:04;;;;;;;;;8.00;8.00;;;;;24.61;29.95;101349.91;4897851;29;8896;-71
2021/09/17 08:38:33;;;;;;;;;4.80;4.80;;;;;24.56;27.48;101347.53;4879364;29;8919;-72
2021/09/17 08:41:01;;;;;;;;;3.00;3.00;;;;;24.33;27.62;101345.19;4868281;29;8863;-71
2021/09/17 08:43:57;;;;;;;;;2.80;2.80;;;;;24.78;27.62;101342.56;4883054;29;8892;-71
2021/09/17 08:46:53;;;;;;;;;3.00;3.00;;;;;24.86;28.22;101341.31;4872736;29;8867;-72
2021/09/17 08:49:24;;;;;;;;;2.20;2.20;;;;;24.49;27.81;101339.06;4889180;29;9111;-71
2021/09/17 08:52:20;;;;;;;;;3.80;3.80;;;;;24.31;28.32;101339.94;4884304;29;8959;-71
2021/09/17 08:54:49;;;;;;;;;3.60;3.60;;;;;24.94;28.45;101337.22;4886695;29;8869;-72
2021/09/17 08:57:46;;;;;;;;;2.80;2.80;;;;;25.12;28.56;101331.44;4863319;29;9005;-71
2021/09/17 09:00:43;;;;;;;;;3.80;3.80;;;;;25.29;28.80;101333.31;4863098;29;9016;-71
2021/09/17 09:03:41;;;;;;;;;1.00;1.00;;;;;25.38;27.89;101321.53;4862923;29;8882;-71
2021/09/17 09:06:15;;;;;;;;;3.20;3.20;;;;;25.50;28.03;101323.84;4860614;29;9006;-70
2021/09/17 09:09:18;;;;;;;;;6.40;6.40;;;;;25.55;28.05;101323.41;4887401;29;8892;-70
2021/09/17 09:12:18;;;;;;;;;1.20;1.20;;;;;26.06;28.31;101313.19;4899952;29;9052;-71
2021/09/17 09:15:20;;;;;;;;;5.00;5.00;;;;;26.11;28.20;101311.91;4899746;29;8967;-72
2021/09/17 09:17:48;;;;;;;;;4.60;4.60;;;;;25.94;28.11;101319.41;4869112;29;8865;-71
2021/09/17 09:20:49;;;;;;;;;7.80;6.60;;;;;26.30;28.40;101317.75;4879740;29;8881;-71
2021/09/17 09:23:44;;;;;;;;;2.20;2.20;;;;;26.84;27.97;101317.88;4895833;29;8900;-71
2021/09/17 09:26:40;;;;;;;;;3.20;3.20;;;;;26.23;26.57;101317.84;4896828;29;9703;-71
2021/09/17 09:29:38;;;;;;;;;5.80;4.00;;;;;26.43;26.59;101303.03;4887387;29;8878;-71
2021/09/17 09:32:34;;;;;;;;;7.20;7.20;;;;;26.81;28.38;101310.19;4869123;29;9688;-71
2021/09/17 09:35:32;;;;;;;;;6.40;6.40;;;;;27.05;27.18;101308.22;4881452;29;8850;-72
2021/09/17 09:38:55;;;;;;;;;4.00;4.00;;;;;26.60;26.43;101299.94;4888189;29;8872;-72
2021/09/17 09:41:52;;;;;;;;;5.60;5.60;;;;;26.94;26.69;101304.75;4888175;29;8902;-71
2021/09/17 09:45:11;;;;;;;;;3.40;3.40;;;;;26.99;25.62;101300.59;4884481;29;8883;-72
2021/09/17 09:48:07;;;;;;;;;17.80;12.60;;;;;26.43;26.22;101298.16;4885213;29;8911;-72
2021/09/17 09:50:35;;;;;;;;;5.60;5.60;;;;;27.06;25.91;101300.50;4881094;29;8871;-71
2021/09/17 09:53:31;;;;;;;;;8.20;8.20;;;;;26.94;25.32;101290.53;4861667;29;8890;-72
2021/09/17 09:56:27;;;;;;;;;6.00;6.00;;;;;26.75;25.85;101285.56;4871777;29;8906;-71
2021/09/17 09:58:55;;;;;;;;;3.80;3.80;;;;;26.93;24.94;101288.16;4881402;29;8910;-71
2021/09/17 10:01:54;;;;;;;;;5.00;5.00;;;;;27.79;25.06;101290.34;4880097;29;8994;-71
2021/09/17 10:04:50;;;;;;;;;2.80;2.80;;;;;28.17;24.79;101283.06;4885953;29;8853;-72
2021/09/17 10:07:35;;;;;;;;;3.80;3.80;;;;;28.43;23.66;101278.47;4885761;29;8893;-72
2021/09/17 10:10:08;;;;;;;;;4.80;4.80;;;;;28.55;23.76;101274.16;4883204;29;8872;-71
2021/09/17 10:13:04;;;;;;;;;3.60;3.60;;;;;28.67;24.33;101270.59;4866122;29;8875;-71
2021/09/17 10:16:00;;;;;;;;;2.00;2.00;;;;;28.76;24.23;101261.47;4879939;29;8876;-72
2021/09/17 10:18:57;;;;;;;;;2.80;2.80;;;;;28.75;24.01;101269.19;4881909;29;8875;-72
2021/09/17 10:21:59;;;;;;;;;5.00;5.00;;;;;28.63;24.83;101263.41;4897864;29;8865;-72
2021/09/17 10:25:12;;;;;;;;;4.40;4.40;;;;;28.75;23.50;101268.38;4886004;29;8850;-73
2021/09/17 10:28:11;;;;;;;;;4.00;4.00;;;;;28.97;23.39;101266.66;4898473;29;8972;-74
2021/09/17 10:31:16;;;;;;;;;5.60;5.60;;;;;28.58;24.86;101253.34;4885955;29;8980;-74
2021/09/17 10:34:39;;;;;;;;;4.20;4.20;;;;;28.99;24.74;101252.00;4898496;29;8923;-74
2021/09/17 10:37:56;;;;;;;;;5.00;5.00;;;;;28.73;25.34;101243.22;4895720;29;8876;-75
2021/09/17 10:41:12;;;;;;;;;2.20;2.20;;;;;28.43;24.88;101235.00;4884247;29;8920;-74
2021/09/17 10:44:08;;;;;;;;;3.60;3.60;;;;;27.67;26.91;101220.75;4867722;29;9631;-74
2021/09/17 10:47:03;;;;;;;;;3.00;3.00;;;;;28.56;25.71;101235.13;4880640;29;8876;-73
2021/09/17 10:50:11;;;;;;;;;4.40;4.40;;;;;28.13;25.77;101234.00;4879181;29;9009;-74
2021/09/17 10:53:07;;;;;;;;;2.80;2.80;;;;;28.46;23.78;101228.44;4860622;29;9617;-74
2021/09/17 10:56:02;;;;;;;;;4.60;4.60;;;;;28.56;24.65;101232.28;4860829;29;8890;-73
2021/09/17 10:59:14;;;;;;;;;3.00;3.00;;;;;28.63;24.58;101221.53;4860976;29;8878;-74
2021/09/17 11:02:10;;;;;;;;;3.00;3.00;;;;;29.01;23.21;101221.03;4895537;29;8877;-73
2021/09/17 11:05:17;;;;;;;;;3.80;3.80;;;;;28.98;23.00;101214.16;4897851;29;8995;-72
2021/09/17 11:08:49;;;;;;;;;3.80;3.80;;;;;28.30;23.61;101220.69;4887342;29;9590;-72
2021/09/17 11:11:46;;;;;;;;;4.60;4.60;;;;;29.13;25.27;101214.59;4875185;29;8876;-72
2021/09/17 11:14:41;;;;;;;;;4.40;4.40;;;;;29.50;23.29;101221.78;4882786;29;9164;-73
2021/09/17 11:17:40;;;;;;;;;2.80;2.80;;;;;29.55;22.63;101212.69;4897676;29;8865;-73
2021/09/17 11:20:14;;;;;;;;;3.20;3.20;;;;;29.24;23.35;101205.78;4882577;29;8936;-72
2021/09/17 11:23:09;;;;;;;;;3.20;3.20;;;;;29.35;22.74;101209.13;4884945;29;8894;-74
2021/09/17 11:26:05;;;;;;;;;3.40;3.40;;;;;28.64;23.88;101203.19;4897342;29;8861;-73
2021/09/17 11:29:09;;;;;;;;;4.80;4.80;;;;;28.74;24.50;101207.81;4897538;29;8995;-74
2021/09/17 11:32:05;;;;;;;;;4.60;4.60;;;;;28.31;24.40;101195.88;4897651;29;8895;-73
2021/09/17 11:35:08;;;;;;;;;4.80;4.80;;;;;28.53;26.41;101189.25;4897133;29;8889;-72
2021/09/17 11:38:04;;;;;;;;;4.20;4.20;;;;;28.37;25.81;101197.75;4897373;29;8920;-73
2021/09/17 11:40:33;;;;;;;;;3.00;3.00;;;;;28.28;25.38;101191.81;4885687;29;8908;-73
2021/09/17 11:43:28;;;;;;;;;5.80;5.80;;;;;28.58;24.92;101195.63;4897017;29;8877;-73
2021/09/17 11:46:25;;;;;;;;;3.80;3.80;;;;;28.48;25.19;101192.59;4883133;29;8875;-73
2021/09/17 11:49:34;;;;;;;;;4.60;4.60;;;;;28.08;25.52;101189.03;4884807;29;8866;-73
2021/09/17 11:52:42;;;;;;;;;6.00;6.00;;;;;28.18;26.03;101179.47;4877643;29;8867;-73
2021/09/17 11:55:37;;;;;;;;;3.20;3.20;;;;;28.67;25.33;101173.03;4869824;29;8863;-72
2021/09/17 11:58:22;;;;;;;;;9.40;9.40;;;;;28.22;25.16;101170.88;4876079;29;9851;-71
2021/09/17 12:01:22;;;;;;;;;5.80;5.80;;;;;28.43;25.39;101172.41;4877659;29;8874;-71
2021/09/17 12:04:18;;;;;;;;;6.00;6.00;;;;;28.08;26.80;101165.50;4878952;29;8885;-71
2021/09/17 12:07:15;;;;;;;;;5.00;5.00;;;;;28.22;25.40;101162.34;4882326;29;8902;-71
2021/09/17 12:10:17;;;;;;;;;4.00;4.00;;;;;27.64;25.15;101159.88;4896291;29;8893;-72
2021/09/17 12:13:13;;;;;;;;;12.40;12.40;;;;;28.40;26.14;101159.88;4886148;29;8916;-73
2021/09/17 12:16:10;;;;;;;;;14.00;14.00;;;;;27.73;24.70;101144.31;4878795;29;8862;-73
2021/09/17 12:19:06;;;;;;;;;12.80;12.80;;;;;28.06;24.83;101156.59;4878979;29;9594;-72
2021/09/17 12:22:02;;;;;;;;;13.00;13.00;;;;;28.10;26.13;101149.59;4879401;29;9067;-72
2021/09/17 12:25:14;;;;;;;;;14.60;14.60;;;;;28.31;25.05;101141.84;4879563;29;8876;-72
2021/09/17 12:28:17;;;;;;;;;13.40;13.40;;;;;28.16;24.59;101153.50;4879208;29;8881;-72
2021/09/17 12:31:35;;;;;;;;;14.00;14.00;;;;;27.79;24.03;101154.75;4884032;29;8865;-73
2021/09/17 12:34:08;;;;;;;;;9.00;9.00;;;;;27.80;24.64;101142.13;4878673;29;9068;-73
2021/09/17 12:37:04;;;;;;;;;7.80;7.80;;;;;27.73;24.45;101147.97;4894760;29;8869;-73
2021/09/17 12:40:13;;;;;;;;;7.00;7.00;;;;;28.10;24.61;101148.78;4896445;29;8887;-73
2021/09/17 12:43:15;;;;;;;;;9.20;9.20;;;;;27.90;25.25;101141.09;4896594;29;8974;-72
2021/09/17 12:46:13;;;;;;;;;6.20;6.20;;;;;27.35;24.41;101138.97;4895017;29;8964;-72
2021/09/17 12:48:47;;;;;;;;;7.60;7.60;;;;;27.73;23.72;101136.59;4894835;29;8865;-72
2021/09/17 12:51:59;;;;;;;;;10.60;10.00;;;;;27.99;24.17;101134.81;4892293;29;8983;-73
2021/09/17 12:55:05;;;;;;;;;8.60;8.60;;;;;28.17;23.70;101137.25;4882569;29;8897;-71
2021/09/17 12:58:30;;;;;;;;;7.00;7.00;;;;;28.52;23.55;101129.91;4881023;29;8879;-71
2021/09/17 13:01:25;;;;;;;;;9.60;9.60;;;;;28.38;23.94;101125.41;4894947;29;8883;-73